createdAt,value
2023-06-03T00:01:23.304Z,91.60
2023-06-03T00:04:01.430Z,91.50
2023-06-03T00:06:42.006Z,91.40
2023-06-03T00:09:08.746Z,91.60
2023-06-03T00:14:34.309Z,91.70
2023-06-03T00:17:01.044Z,91.80
2023-06-03T00:19:33.719Z,91.90
2023-06-03T00:22:12.817Z,92.00
2023-06-03T00:24:41.639Z,92.10
2023-06-03T00:27:08.563Z,92.10
2023-06-03T00:29:35.405Z,92.10
2023-06-03T00:32:11.280Z,92.40
2023-06-03T00:34:40.771Z,92.60
2023-06-03T00:37:10.391Z,92.80
2023-06-03T00:39:49.141Z,92.70
2023-06-03T00:42:16.057Z,92.70
2023-06-03T00:44:46.909Z,92.80
2023-06-03T00:47:23.233Z,92.80
2023-06-03T00:49:50.291Z,92.80
2023-06-03T00:52:18.808Z,92.90
2023-06-03T00:54:47.424Z,92.90
2023-06-03T00:57:20.069Z,93.00
2023-06-03T00:59:48.124Z,93.20
2023-06-03T01:02:14.903Z,93.10
2023-06-03T01:04:48.787Z,93.10
2023-06-03T01:07:54.195Z,93.00
2023-06-03T01:17:19.259Z,93.10
2023-06-03T01:20:01.308Z,92.70
2023-06-03T01:22:29.513Z,92.80
2023-06-03T01:25:24.152Z,93.20
2023-06-03T01:28:02.685Z,93.00
2023-06-03T01:30:45.632Z,92.70
2023-06-03T01:33:31.923Z,93.00
2023-06-03T01:36:01.314Z,92.80
2023-06-03T01:38:29.010Z,92.80
2023-06-03T01:40:56.444Z,92.70
2023-06-03T01:43:32.402Z,93.00
2023-06-03T01:46:14.374Z,92.60
2023-06-03T01:48:53.077Z,92.60
2023-06-03T01:51:26.677Z,92.40
2023-06-03T01:53:53.428Z,92.80
2023-06-03T01:59:20.305Z,92.90
2023-06-03T02:02:02.123Z,92.90
2023-06-03T02:04:43.928Z,92.50
2023-06-03T02:07:19.720Z,92.50
2023-06-03T02:09:55.807Z,92.30
2023-06-03T02:12:41.095Z,92.30
2023-06-03T02:15:16.653Z,92.30
2023-06-03T02:18:01.119Z,92.40
2023-06-03T02:20:49.233Z,92.30
2023-06-03T02:23:24.516Z,92.00
2023-06-03T02:26:06.566Z,92.00
2023-06-03T02:28:34.460Z,92.00
2023-06-03T02:31:16.564Z,92.10
2023-06-03T02:33:46.480Z,91.60
2023-06-03T02:36:15.037Z,91.50
2023-06-03T02:38:45.077Z,91.10
2023-06-03T02:41:11.982Z,91.20
2023-06-03T02:43:42.468Z,90.70
2023-06-03T02:48:52.829Z,91.00
2023-06-03T02:51:19.595Z,90.40
2023-06-03T02:53:57.040Z,90.30
2023-06-03T02:56:24.446Z,90.40
2023-06-03T02:59:06.340Z,90.20
2023-06-03T03:01:33.116Z,90.40
2023-06-03T03:04:20.571Z,90.30
2023-06-03T03:06:47.320Z,90.30
2023-06-03T03:09:15.116Z,90.00
2023-06-03T03:11:44.579Z,90.00
2023-06-03T03:14:23.378Z,89.80
2023-06-03T03:16:50.089Z,89.90
2023-06-03T03:19:23.034Z,89.30
2023-06-03T03:21:50.359Z,89.10
2023-06-03T03:24:25.862Z,89.00
2023-06-03T03:26:52.606Z,89.10
2023-06-03T03:29:22.434Z,88.90
2023-06-03T03:31:54.328Z,88.70
2023-06-03T03:34:21.657Z,88.60
2023-06-03T03:36:49.089Z,88.50
2023-06-03T03:39:31.080Z,88.70
2023-06-03T03:42:07.424Z,88.40
2023-06-03T03:44:50.862Z,88.10
2023-06-03T03:47:24.624Z,88.40
2023-06-03T03:49:53.473Z,88.30
2023-06-03T03:52:35.940Z,88.30
2023-06-03T03:55:06.251Z,88.70
2023-06-03T03:57:35.161Z,88.10
2023-06-03T04:00:05.874Z,88.10
2023-06-03T04:02:34.894Z,87.90
2023-06-03T04:05:01.724Z,87.60
2023-06-03T04:07:28.489Z,87.00
2023-06-03T04:09:55.353Z,86.60
2023-06-03T04:12:35.533Z,86.40
2023-06-03T04:15:06.109Z,85.90
2023-06-03T04:17:45.336Z,85.60
2023-06-03T04:23:31.577Z,83.60
2023-06-03T04:26:14.474Z,83.20
2023-06-03T04:28:41.217Z,82.20
2023-06-03T04:31:07.857Z,81.90
2023-06-03T04:33:50.417Z,80.70
2023-06-03T04:36:18.333Z,80.40
2023-06-03T04:38:53.401Z,80.10
2023-06-03T04:41:20.338Z,79.50
2023-06-03T04:43:59.686Z,78.60
2023-06-03T04:46:29.479Z,78.10
2023-06-03T04:49:05.010Z,78.10
2023-06-03T04:51:32.505Z,77.80
2023-06-03T04:54:21.768Z,76.80
2023-06-03T04:56:58.074Z,76.80
2023-06-03T04:59:24.815Z,75.40
2023-06-03T05:04:35.290Z,74.40
2023-06-03T05:07:01.980Z,74.20
2023-06-03T05:09:40.946Z,73.50
2023-06-03T05:12:12.283Z,73.20
2023-06-03T05:14:42.072Z,72.40
2023-06-03T05:17:14.870Z,72.40
2023-06-03T05:19:48.045Z,71.90
2023-06-03T05:22:14.798Z,71.70
2023-06-03T05:25:41.337Z,70.30
2023-06-03T05:28:11.057Z,69.40
2023-06-03T05:30:52.966Z,69.80
2023-06-03T05:36:20.032Z,68.90
2023-06-03T05:38:52.443Z,68.80
2023-06-03T05:41:19.422Z,68.20
2023-06-03T05:43:48.256Z,68.30
2023-06-03T05:46:15.445Z,68.50
2023-06-03T05:49:22.234Z,67.90
2023-06-03T05:55:44.567Z,67.50
2023-06-03T05:58:25.115Z,65.80
2023-06-03T06:00:57.312Z,66.10
2023-06-03T06:03:28.127Z,65.10
2023-06-03T06:05:55.277Z,64.90
2023-06-03T06:11:23.868Z,63.80
2023-06-03T06:14:12.426Z,63.90
2023-06-03T06:17:28.738Z,61.60
2023-06-03T06:20:03.177Z,60.90
2023-06-03T06:25:29.520Z,59.60
2023-06-03T06:28:11.369Z,60.50
2023-06-03T06:34:00.894Z,57.30
2023-06-03T06:36:31.875Z,55.70
2023-06-03T06:39:24.094Z,54.50
2023-06-03T06:41:52.024Z,55.30
2023-06-03T06:51:41.626Z,53.80
2023-06-03T06:55:02.102Z,49.00
2023-06-03T07:56:31.444Z,42.30
2023-06-03T08:01:41.246Z,41.70
2023-06-03T08:04:33.996Z,41.80
2023-06-03T08:09:55.538Z,41.60
2023-06-03T08:12:35.903Z,41.90
2023-06-03T08:15:03.443Z,38.50
2023-06-03T08:17:41.969Z,40.10
2023-06-03T08:20:09.177Z,40.40
2023-06-03T08:22:45.603Z,40.10
2023-06-03T08:25:12.851Z,39.40
2023-06-03T08:27:39.813Z,39.50
2023-06-03T08:30:22.511Z,38.80
2023-06-03T08:32:52.465Z,38.00
2023-06-03T08:35:22.594Z,38.90
2023-06-03T08:37:50.200Z,39.30
2023-06-03T08:40:17.461Z,38.70
2023-06-03T08:42:45.080Z,39.00
2023-06-03T08:45:13.608Z,39.60
2023-06-03T08:48:05.862Z,38.30
2023-06-03T08:50:37.544Z,38.40
2023-06-03T08:53:10.328Z,39.60
2023-06-03T08:55:40.943Z,38.00
2023-06-03T08:58:27.581Z,38.60
2023-06-03T09:00:59.797Z,38.40
2023-06-03T09:03:27.636Z,38.90
2023-06-03T09:05:55.838Z,38.20
2023-06-03T09:08:24.393Z,38.00
2023-06-03T09:10:51.829Z,38.60
2023-06-03T09:13:26.731Z,38.00
2023-06-03T09:15:53.864Z,38.80
2023-06-03T09:18:20.671Z,38.70
2023-06-03T09:20:50.262Z,39.10
2023-06-03T09:23:17.544Z,39.10
2023-06-03T09:25:46.952Z,38.70
2023-06-03T09:28:16.498Z,38.30
2023-06-03T09:30:45.539Z,37.90
2023-06-03T09:33:12.342Z,38.80
2023-06-03T09:35:42.408Z,39.00
2023-06-03T09:38:09.250Z,38.20
2023-06-03T09:40:38.223Z,37.90
2023-06-03T09:46:10.440Z,37.30
2023-06-03T09:48:43.129Z,37.60
2023-06-03T09:51:15.173Z,37.90
2023-06-03T09:57:14.146Z,37.20
2023-06-03T10:03:09.276Z,37.50
2023-06-03T10:05:39.011Z,37.10
2023-06-03T10:08:35.906Z,37.50
2023-06-03T10:17:37.256Z,37.60
2023-06-03T10:20:32.710Z,36.40
2023-06-03T10:23:02.378Z,36.20
2023-06-03T10:25:46.561Z,36.30
2023-06-03T10:28:15.800Z,36.60
2023-06-03T10:31:04.308Z,36.30
2023-06-03T10:33:33.185Z,35.80
2023-06-03T10:36:04.143Z,36.80
2023-06-03T10:38:34.094Z,36.00
2023-06-03T10:44:33.210Z,37.10
2023-06-03T10:47:29.657Z,36.50
2023-06-03T10:50:27.780Z,37.20
2023-06-03T10:53:08.121Z,35.70
2023-06-03T10:59:19.388Z,36.50
2023-06-03T11:02:03.419Z,34.60
2023-06-03T11:04:34.997Z,35.40
2023-06-03T11:07:02.006Z,35.60
2023-06-03T11:09:38.441Z,34.90
2023-06-03T11:12:12.316Z,34.30
2023-06-03T11:14:39.076Z,33.50
2023-06-03T11:17:10.131Z,35.10
2023-06-03T11:19:46.242Z,35.30
2023-06-03T11:22:34.409Z,35.80
2023-06-03T11:44:41.807Z,35.40
2023-06-03T12:00:10.062Z,34.20
2023-06-03T12:03:13.549Z,32.30
2023-06-03T12:15:57.760Z,32.50
2023-06-03T12:24:18.620Z,32.60
2023-06-03T12:26:48.470Z,33.40
2023-06-03T12:29:27.075Z,31.30
2023-06-03T12:32:06.455Z,31.20
2023-06-03T12:34:39.646Z,31.80
2023-06-03T12:37:30.058Z,32.70
2023-06-03T12:43:22.858Z,33.40
2023-06-03T12:52:34.603Z,31.00
2023-06-03T12:55:18.426Z,32.20
2023-06-03T13:00:37.211Z,30.80
2023-06-03T13:03:43.385Z,31.10
2023-06-03T13:09:19.884Z,29.60
2023-06-03T13:11:55.825Z,29.20
2023-06-03T13:48:14.215Z,30.20
2023-06-03T13:50:43.626Z,30.70
2023-06-03T13:53:26.570Z,29.50
2023-06-03T13:56:08.106Z,28.80
2023-06-03T13:58:35.869Z,29.60
2023-06-03T14:01:04.227Z,30.20
2023-06-03T14:03:31.402Z,30.50
2023-06-03T14:05:58.071Z,30.40
2023-06-03T14:08:26.859Z,30.50
2023-06-03T14:10:53.613Z,29.40
2023-06-03T14:13:32.505Z,30.50
2023-06-03T14:16:16.110Z,29.90
2023-06-03T14:18:45.700Z,29.80
2023-06-03T16:45:51.473Z,31.40
2023-06-03T17:09:31.662Z,30.70
2023-06-03T17:12:55.075Z,30.60
2023-06-03T17:21:23.416Z,31.40
2023-06-03T17:27:17.336Z,31.60
2023-06-03T17:35:30.319Z,32.30
2023-06-03T17:47:51.841Z,32.70
2023-06-03T17:50:21.195Z,32.40
2023-06-03T17:52:59.942Z,32.90
2023-06-03T17:55:50.692Z,32.90
2023-06-03T17:58:42.510Z,33.20
2023-06-03T18:16:31.632Z,34.40
2023-06-03T18:22:48.328Z,34.80
2023-06-03T18:25:28.159Z,35.30
2023-06-03T18:28:30.205Z,35.30
2023-06-03T18:31:22.069Z,35.40
2023-06-03T18:34:15.132Z,36.50
2023-06-03T18:40:20.282Z,46.10
2023-06-03T18:55:16.883Z,51.80
2023-06-03T18:58:27.583Z,52.30
2023-06-03T19:10:51.018Z,54.20
2023-06-03T19:13:54.682Z,54.40
2023-06-03T19:16:55.502Z,54.90
2023-06-03T19:19:43.036Z,55.10
2023-06-03T19:22:28.118Z,54.70
2023-06-03T19:25:10.257Z,55.00
2023-06-03T19:27:52.488Z,54.80
2023-06-03T19:30:37.102Z,54.80
2023-06-03T19:33:29.562Z,54.90
2023-06-03T19:35:59.611Z,55.00
2023-06-03T19:38:38.969Z,55.10
2023-06-03T19:44:08.978Z,55.30
2023-06-03T19:49:35.441Z,55.70
2023-06-03T19:55:37.539Z,55.10
2023-06-03T19:58:10.411Z,54.30
2023-06-03T20:00:45.962Z,53.80
2023-06-03T20:09:10.500Z,53.50
2023-06-03T20:12:05.318Z,53.90
2023-06-03T20:15:08.218Z,53.40
2023-06-03T20:17:52.746Z,53.00
2023-06-03T20:20:19.745Z,53.10
2023-06-03T20:22:47.149Z,52.90
2023-06-03T20:25:13.935Z,53.00
2023-06-03T20:27:40.640Z,53.10
2023-06-03T20:30:12.546Z,53.20
2023-06-03T20:32:39.441Z,53.60
2023-06-03T20:35:06.738Z,53.90
2023-06-03T20:37:36.637Z,54.30
2023-06-03T20:40:14.584Z,54.70
2023-06-03T20:42:41.515Z,54.90
2023-06-03T20:45:08.675Z,55.20
2023-06-03T20:47:35.402Z,55.00
2023-06-03T20:50:05.789Z,55.10
2023-06-03T20:52:35.872Z,55.10
2023-06-03T21:09:10.003Z,55.30
2023-06-03T21:12:42.198Z,55.60
2023-06-03T21:15:09.518Z,55.80
2023-06-03T21:17:51.891Z,56.00
2023-06-03T21:20:29.046Z,56.20
2023-06-03T21:23:33.194Z,56.40
2023-06-03T21:26:02.157Z,56.60
2023-06-03T21:28:44.202Z,56.70
2023-06-03T21:31:10.935Z,57.00
2023-06-03T21:33:52.694Z,57.20
2023-06-03T21:36:19.463Z,57.50
2023-06-03T21:38:46.164Z,57.60
2023-06-03T21:41:12.831Z,57.80
2023-06-03T21:43:39.919Z,58.20
2023-06-03T21:46:06.664Z,58.30
2023-06-03T21:48:45.406Z,58.40
2023-06-03T21:51:12.074Z,58.70
2023-06-03T21:53:38.930Z,58.80
2023-06-03T21:56:15.105Z,59.00
2023-06-03T21:58:42.309Z,59.40
2023-06-03T22:01:09.414Z,59.40
2023-06-03T22:06:16.958Z,60.00
2023-06-03T22:08:43.768Z,60.20
2023-06-03T22:11:10.565Z,60.30
2023-06-03T22:13:37.545Z,60.50
2023-06-03T22:16:04.820Z,60.70
2023-06-03T22:18:31.556Z,61.00
2023-06-03T22:20:58.417Z,61.10
2023-06-03T22:23:25.220Z,61.50
2023-06-03T22:25:52.021Z,61.80
2023-06-03T22:28:18.764Z,61.90
2023-06-03T22:30:45.464Z,62.00
2023-06-03T22:33:12.161Z,62.30
2023-06-03T22:35:40.439Z,62.50
2023-06-03T22:38:07.494Z,62.60
2023-06-03T22:40:34.417Z,62.70
2023-06-03T22:43:01.064Z,62.90
2023-06-03T22:45:27.735Z,63.20
2023-06-03T22:47:54.487Z,63.40
2023-06-03T22:50:21.137Z,63.40
2023-06-03T22:52:47.904Z,63.70
2023-06-03T22:55:15.713Z,63.90
2023-06-03T22:57:42.656Z,64.10
2023-06-03T23:00:09.821Z,64.30
2023-06-03T23:02:38.590Z,64.70
2023-06-03T23:05:05.661Z,64.70
2023-06-03T23:07:32.333Z,65.00
2023-06-03T23:10:08.677Z,65.30
2023-06-03T23:15:16.128Z,65.90
2023-06-03T23:17:42.904Z,66.10
2023-06-03T23:20:27.113Z,66.40
2023-06-03T23:22:54.584Z,66.70
2023-06-03T23:25:22.844Z,66.90
2023-06-03T23:27:49.789Z,67.20
2023-06-03T23:30:16.781Z,67.20
2023-06-03T23:32:44.190Z,67.40
2023-06-03T23:35:13.948Z,67.60
2023-06-03T23:37:43.012Z,67.80
2023-06-03T23:40:11.169Z,68.00
2023-06-03T23:42:38.851Z,68.20
2023-06-03T23:45:06.339Z,68.40
2023-06-03T23:47:33.089Z,68.60
2023-06-03T23:50:04.577Z,68.70
2023-06-03T23:52:31.719Z,69.00
2023-06-03T23:54:58.739Z,69.10
2023-06-03T23:57:27.195Z,69.20
2023-06-03T23:59:54.067Z,69.40
